createdAt,value
2022-08-30T00:01:02.452Z,23.84
2022-08-30T00:03:36.989Z,23.81
2022-08-30T00:06:06.517Z,23.72
2022-08-30T00:08:34.529Z,23.79
2022-08-30T00:11:02.533Z,23.82
2022-08-30T00:13:29.616Z,23.82
2022-08-30T00:15:56.826Z,23.82
2022-08-30T00:18:24.589Z,23.80
2022-08-30T00:20:52.450Z,23.86
2022-08-30T00:23:19.389Z,23.91
2022-08-30T00:25:46.250Z,23.92
2022-08-30T00:28:13.726Z,23.90
2022-08-30T00:30:41.614Z,23.77
2022-08-30T00:33:08.288Z,23.82
2022-08-30T00:35:34.935Z,23.82
2022-08-30T00:38:02.098Z,23.75
2022-08-30T00:40:30.593Z,23.62
2022-08-30T00:42:59.691Z,23.58
2022-08-30T00:45:33.097Z,23.53
2022-08-30T00:48:00.306Z,23.49
2022-08-30T00:50:35.961Z,23.46
2022-08-30T00:53:07.027Z,23.49
2022-08-30T00:55:34.677Z,23.52
2022-08-30T00:58:08.754Z,23.49
2022-08-30T01:00:35.799Z,23.49
2022-08-30T01:03:02.702Z,23.45
2022-08-30T01:05:29.897Z,23.40
2022-08-30T01:07:56.471Z,23.50
2022-08-30T01:10:23.279Z,23.55
2022-08-30T01:12:50.086Z,23.58
2022-08-30T01:15:17.027Z,23.60
2022-08-30T01:17:47.686Z,23.62
2022-08-30T01:20:24.142Z,23.70
2022-08-30T01:22:50.639Z,23.73
2022-08-30T01:25:24.509Z,23.69
2022-08-30T01:27:55.227Z,23.71
2022-08-30T01:30:24.062Z,23.59
2022-08-30T01:32:56.394Z,23.54
2022-08-30T01:35:23.230Z,23.42
2022-08-30T01:37:49.879Z,23.57
2022-08-30T01:40:19.751Z,23.56
2022-08-30T01:42:46.441Z,23.62
2022-08-30T01:45:13.687Z,23.59
2022-08-30T01:47:40.648Z,23.51
2022-08-30T01:50:08.652Z,23.59
2022-08-30T01:52:35.298Z,23.57
2022-08-30T01:55:02.199Z,23.55
2022-08-30T01:57:28.802Z,23.38
2022-08-30T01:59:55.687Z,23.19
2022-08-30T02:02:27.114Z,23.16
2022-08-30T02:04:54.676Z,23.18
2022-08-30T02:07:22.225Z,23.17
2022-08-30T02:09:48.873Z,23.19
2022-08-30T02:12:15.440Z,23.23
2022-08-30T02:14:42.298Z,23.25
2022-08-30T02:17:11.165Z,23.22
2022-08-30T02:19:38.458Z,23.35
2022-08-30T02:22:06.066Z,23.33
2022-08-30T02:24:32.772Z,23.30
2022-08-30T02:26:59.483Z,23.11
2022-08-30T02:29:26.336Z,23.15
2022-08-30T02:31:52.899Z,23.13
2022-08-30T02:34:19.587Z,23.11
2022-08-30T02:36:46.313Z,23.10
2022-08-30T02:39:14.060Z,23.02
2022-08-30T02:41:41.690Z,22.90
2022-08-30T02:44:09.928Z,22.82
2022-08-30T02:46:36.888Z,22.71
2022-08-30T02:49:30.001Z,22.76
2022-08-30T02:51:51.196Z,22.47
2022-08-30T02:54:20.083Z,22.59
2022-08-30T02:56:48.471Z,22.64
2022-08-30T02:59:16.847Z,22.59
2022-08-30T03:01:43.633Z,22.62
2022-08-30T03:04:10.636Z,22.62
2022-08-30T03:06:37.457Z,22.62
2022-08-30T03:09:04.419Z,22.65
2022-08-30T03:11:31.498Z,22.81
2022-08-30T03:13:58.131Z,22.87
2022-08-30T03:16:24.991Z,23.00
2022-08-30T03:18:51.631Z,23.07
2022-08-30T03:21:18.306Z,23.08
2022-08-30T03:23:45.421Z,23.14
2022-08-30T03:26:14.738Z,23.03
2022-08-30T03:28:44.487Z,23.03
2022-08-30T03:31:12.023Z,23.01
2022-08-30T03:33:40.349Z,23.05
2022-08-30T03:36:09.014Z,23.10
2022-08-30T03:38:35.945Z,23.17
2022-08-30T03:41:02.755Z,23.08
2022-08-30T03:43:30.298Z,23.08
2022-08-30T03:45:57.077Z,23.10
2022-08-30T03:48:23.665Z,23.05
2022-08-30T03:50:50.406Z,23.05
2022-08-30T03:53:17.178Z,23.03
2022-08-30T03:55:43.941Z,22.87
2022-08-30T03:58:10.754Z,22.76
2022-08-30T04:00:37.937Z,22.73
2022-08-30T04:03:04.554Z,22.81
2022-08-30T04:05:31.837Z,22.85
2022-08-30T04:07:58.404Z,22.87
2022-08-30T04:10:25.026Z,22.78
2022-08-30T04:12:51.597Z,22.84
2022-08-30T04:15:18.947Z,22.79
2022-08-30T04:17:46.535Z,22.62
2022-08-30T04:20:13.541Z,22.59
2022-08-30T04:22:40.375Z,22.57
2022-08-30T04:25:07.783Z,22.56
2022-08-30T04:27:39.701Z,22.60
2022-08-30T04:30:07.053Z,22.63
2022-08-30T04:32:35.929Z,22.63
2022-08-30T04:35:02.519Z,22.68
2022-08-30T04:37:29.123Z,22.74
2022-08-30T04:40:02.090Z,22.78
2022-08-30T04:42:31.676Z,22.80
2022-08-30T04:45:00.182Z,22.71
2022-08-30T04:47:26.905Z,22.79
2022-08-30T04:49:53.942Z,22.81
2022-08-30T04:52:20.892Z,22.83
2022-08-30T04:54:47.534Z,22.84
2022-08-30T04:57:14.279Z,22.81
2022-08-30T04:59:40.859Z,22.90
2022-08-30T05:02:07.658Z,22.91
2022-08-30T05:04:34.285Z,23.00
2022-08-30T05:07:01.229Z,23.01
2022-08-30T05:09:27.805Z,23.02
2022-08-30T05:11:55.029Z,23.02
2022-08-30T05:14:21.631Z,23.01
2022-08-30T05:16:48.231Z,23.06
2022-08-30T05:19:14.877Z,23.07
2022-08-30T05:21:41.591Z,23.09
2022-08-30T05:24:08.369Z,23.10
2022-08-30T05:26:38.846Z,23.12
2022-08-30T05:29:05.737Z,23.14
2022-08-30T05:31:36.181Z,23.18
2022-08-30T05:34:04.420Z,23.18
2022-08-30T05:36:34.533Z,23.18
2022-08-30T05:39:01.417Z,23.17
2022-08-30T05:41:28.654Z,23.20
2022-08-30T05:43:59.287Z,23.17
2022-08-30T05:46:29.418Z,23.17
2022-08-30T05:48:56.990Z,23.07
2022-08-30T05:51:26.023Z,22.98
2022-08-30T05:53:53.869Z,22.97
2022-08-30T05:56:24.841Z,22.90
2022-08-30T05:58:53.247Z,22.84
2022-08-30T06:01:34.160Z,22.89
2022-08-30T06:04:04.280Z,22.90
2022-08-30T06:06:33.696Z,22.79
2022-08-30T06:09:00.439Z,22.87
2022-08-30T06:11:27.675Z,22.92
2022-08-30T06:13:55.628Z,22.95
2022-08-30T06:16:26.001Z,22.87
2022-08-30T06:18:54.122Z,22.92
2022-08-30T06:21:29.727Z,22.79
2022-08-30T06:23:57.296Z,22.76
2022-08-30T06:26:24.760Z,22.70
2022-08-30T06:28:51.685Z,22.80
2022-08-30T06:31:20.493Z,22.82
2022-08-30T06:33:47.701Z,22.83
2022-08-30T06:36:17.802Z,22.87
2022-08-30T06:38:45.332Z,22.87
2022-08-30T06:41:16.110Z,22.91
2022-08-30T06:43:48.684Z,22.95
2022-08-30T06:46:23.509Z,23.06
2022-08-30T06:48:50.630Z,23.14
2022-08-30T06:51:22.829Z,23.20
2022-08-30T06:53:50.242Z,23.26
2022-08-30T06:56:18.926Z,23.32
2022-08-30T06:58:46.922Z,23.42
2022-08-30T07:01:16.816Z,23.47
2022-08-30T07:03:43.930Z,23.47
2022-08-30T07:06:11.263Z,23.47
2022-08-30T07:08:38.662Z,23.51
2022-08-30T07:11:07.563Z,23.55
2022-08-30T07:13:35.585Z,23.59
2022-08-30T07:16:09.891Z,23.59
2022-08-30T07:18:52.139Z,23.60
2022-08-30T07:21:22.924Z,23.50
2022-08-30T07:23:53.547Z,23.35
2022-08-30T07:26:25.532Z,23.40
2022-08-30T07:28:56.248Z,23.46
2022-08-30T07:31:24.412Z,23.42
2022-08-30T07:33:51.338Z,23.49
2022-08-30T07:36:18.317Z,23.48
2022-08-30T07:38:46.611Z,23.49
2022-08-30T07:41:31.106Z,23.57
2022-08-30T07:43:57.873Z,23.63
2022-08-30T07:46:25.278Z,23.72
2022-08-30T07:48:54.369Z,23.68
2022-08-30T07:51:23.928Z,23.65
2022-08-30T07:53:50.811Z,23.55
2022-08-30T07:56:17.407Z,23.54
2022-08-30T07:58:44.153Z,23.59
2022-08-30T08:01:12.578Z,23.57
2022-08-30T08:03:41.025Z,23.57
2022-08-30T08:06:09.764Z,23.64
2022-08-30T08:08:38.772Z,23.75
2022-08-30T08:11:08.166Z,23.87
2022-08-30T08:13:37.872Z,23.88
2022-08-30T08:16:19.945Z,24.02
2022-08-30T08:18:46.517Z,23.96
2022-08-30T08:21:13.186Z,23.95
2022-08-30T08:23:39.860Z,23.99
2022-08-30T08:26:06.494Z,24.10
2022-08-30T08:28:33.043Z,24.17
2022-08-30T08:30:59.768Z,24.15
2022-08-30T08:33:26.439Z,24.17
2022-08-30T08:35:56.193Z,24.18
2022-08-30T08:38:22.826Z,24.16
2022-08-30T08:41:03.769Z,24.09
2022-08-30T08:43:35.050Z,24.04
2022-08-30T08:46:09.958Z,24.11
2022-08-30T08:49:01.406Z,24.20
2022-08-30T08:51:53.323Z,24.20
2022-08-30T08:54:44.387Z,24.27
2022-08-30T08:57:13.788Z,24.22
2022-08-30T08:59:45.001Z,24.26
2022-08-30T09:02:30.206Z,24.39
2022-08-30T09:05:00.637Z,24.43
2022-08-30T09:07:35.546Z,24.60
2022-08-30T09:10:02.592Z,24.71
2022-08-30T09:12:29.372Z,24.73
2022-08-30T09:15:04.158Z,24.78
2022-08-30T09:17:50.058Z,24.73
2022-08-30T09:20:26.085Z,24.69
2022-08-30T09:22:53.469Z,24.81
2022-08-30T09:25:25.846Z,24.84
2022-08-30T09:27:54.793Z,24.87
2022-08-30T09:30:30.202Z,24.86
2022-08-30T09:33:00.122Z,24.87
2022-08-30T09:35:42.771Z,24.85
2022-08-30T09:38:14.876Z,24.81
2022-08-30T09:40:53.545Z,24.82
2022-08-30T09:43:25.703Z,24.78
2022-08-30T09:46:01.472Z,24.78
2022-08-30T09:48:37.674Z,24.76
2022-08-30T09:51:10.050Z,24.78
2022-08-30T09:54:16.700Z,24.75
2022-08-30T09:56:51.365Z,24.72
2022-08-30T09:59:32.819Z,24.68
2022-08-30T10:02:06.583Z,24.65
2022-08-30T10:04:44.171Z,24.60
2022-08-30T10:07:23.361Z,24.66
2022-08-30T10:10:20.554Z,24.59
2022-08-30T10:13:02.178Z,24.58
2022-08-30T10:15:43.701Z,24.54
2022-08-30T10:18:19.419Z,24.54
2022-08-30T10:21:13.437Z,24.53
2022-08-30T10:23:47.374Z,24.54
2022-08-30T10:26:34.930Z,24.58
2022-08-30T10:29:08.678Z,24.65
2022-08-30T10:31:49.147Z,24.67
2022-08-30T10:34:32.385Z,24.69
2022-08-30T10:37:13.383Z,24.67
2022-08-30T10:39:48.767Z,24.67
2022-08-30T10:42:23.063Z,24.68
2022-08-30T10:44:58.463Z,24.70
2022-08-30T10:47:41.708Z,24.78
2022-08-30T10:50:17.452Z,24.82
2022-08-30T10:53:10.173Z,24.89
2022-08-30T10:55:49.355Z,25.00
2022-08-30T10:58:18.379Z,25.18
2022-08-30T11:01:00.083Z,25.39
2022-08-30T11:03:42.493Z,25.63
2022-08-30T11:06:18.434Z,25.71
2022-08-30T11:09:13.948Z,25.70
2022-08-30T11:11:46.331Z,25.67
2022-08-30T11:14:17.486Z,25.53
2022-08-30T11:16:48.467Z,25.55
2022-08-30T11:19:18.861Z,25.54
2022-08-30T11:21:48.484Z,25.40
2022-08-30T11:24:25.414Z,25.34
2022-08-30T11:26:57.621Z,25.47
2022-08-30T11:29:27.565Z,25.51
2022-08-30T11:31:55.547Z,25.47
2022-08-30T11:34:45.021Z,25.32
2022-08-30T11:37:29.976Z,25.35
2022-08-30T11:40:04.004Z,25.41
2022-08-30T11:45:25.130Z,25.20
2022-08-30T11:47:59.561Z,25.20
2022-08-30T11:50:36.397Z,25.16
2022-08-30T11:53:09.301Z,25.17
2022-08-30T11:56:01.142Z,25.15
2022-08-30T11:58:53.640Z,25.16
2022-08-30T12:01:42.331Z,25.15
2022-08-30T12:04:37.349Z,25.24
2022-08-30T12:07:09.007Z,25.09
2022-08-30T12:09:35.728Z,25.05
2022-08-30T12:12:09.365Z,24.91
2022-08-30T12:14:51.820Z,24.88
2022-08-30T12:18:15.550Z,24.93
2022-08-30T12:20:48.573Z,24.89
2022-08-30T12:23:24.213Z,24.82
2022-08-30T12:25:50.884Z,24.82
2022-08-30T12:28:26.102Z,24.75
2022-08-30T12:30:53.547Z,24.71
2022-08-30T12:33:40.305Z,24.70
2022-08-30T12:36:13.597Z,24.75
2022-08-30T12:38:40.907Z,24.69
2022-08-30T12:41:07.525Z,24.87
2022-08-30T12:43:51.968Z,24.97
2022-08-30T12:46:20.963Z,25.10
2022-08-30T12:48:48.040Z,25.19
2022-08-30T12:51:38.471Z,25.17
2022-08-30T12:54:21.209Z,25.26
2022-08-30T12:56:52.593Z,25.29
2022-08-30T12:59:54.157Z,25.36
2022-08-30T13:02:41.973Z,25.55
2022-08-30T13:05:48.498Z,25.77
2022-08-30T13:08:31.071Z,26.05
2022-08-30T13:11:20.717Z,26.14
2022-08-30T13:13:52.751Z,26.12
2022-08-30T13:16:26.183Z,25.99
2022-08-30T13:19:15.902Z,25.99
2022-08-30T13:21:54.495Z,25.94
2022-08-30T13:24:25.237Z,25.92
2022-08-30T13:26:55.630Z,25.87
2022-08-30T13:29:26.148Z,25.84
2022-08-30T13:31:53.737Z,25.86
2022-08-30T13:34:22.465Z,25.90
2022-08-30T13:36:57.764Z,25.88
2022-08-30T13:39:25.492Z,25.83
2022-08-30T13:41:52.672Z,25.80
2022-08-30T13:44:20.104Z,25.77
2022-08-30T13:46:54.590Z,25.74
2022-08-30T13:49:43.873Z,25.77
2022-08-30T13:52:22.136Z,25.79
2022-08-30T13:54:51.535Z,25.73
2022-08-30T14:00:14.702Z,25.71
2022-08-30T14:02:46.579Z,25.74
2022-08-30T14:05:47.138Z,25.74
2022-08-30T14:08:03.864Z,25.74
2022-08-30T14:10:32.926Z,25.66
2022-08-30T14:13:07.803Z,25.69
2022-08-30T14:15:35.106Z,25.66
2022-08-30T14:18:06.366Z,25.64
2022-08-30T14:20:35.450Z,25.67
2022-08-30T14:23:09.861Z,25.67
2022-08-30T14:25:37.511Z,25.73
2022-08-30T14:28:04.191Z,25.71
2022-08-30T14:30:31.806Z,25.76
2022-08-30T14:33:00.111Z,25.78
2022-08-30T14:35:26.760Z,25.78
2022-08-30T14:37:54.115Z,25.77
2022-08-30T14:40:21.541Z,25.72
2022-08-30T14:42:48.132Z,25.71
2022-08-30T14:45:15.549Z,25.66
2022-08-30T14:47:42.183Z,25.61
2022-08-30T14:50:08.930Z,25.64
2022-08-30T14:52:36.100Z,25.67
2022-08-30T14:55:08.813Z,25.67
2022-08-30T14:57:38.186Z,25.67
2022-08-30T15:00:08.634Z,25.71
2022-08-30T15:02:35.878Z,25.73
2022-08-30T15:05:02.854Z,25.72
2022-08-30T15:07:33.858Z,25.73
2022-08-30T15:10:00.586Z,25.73
2022-08-30T15:12:28.269Z,25.68
2022-08-30T15:14:55.881Z,25.68
2022-08-30T15:17:22.545Z,25.58
2022-08-30T15:19:49.257Z,25.63
2022-08-30T15:22:16.833Z,25.64
2022-08-30T15:24:43.641Z,25.64
2022-08-30T15:27:15.543Z,25.63
2022-08-30T15:29:42.252Z,25.71
2022-08-30T15:32:09.175Z,25.63
2022-08-30T15:34:36.153Z,25.73
2022-08-30T15:37:05.046Z,25.71
2022-08-30T15:39:31.775Z,25.72
2022-08-30T15:42:01.112Z,25.72
2022-08-30T15:44:30.075Z,25.68
2022-08-30T15:46:56.836Z,25.74
2022-08-30T15:49:24.016Z,25.67
2022-08-30T15:51:53.959Z,25.65
2022-08-30T15:54:23.736Z,25.64
2022-08-30T15:56:58.923Z,25.60
2022-08-30T15:59:30.285Z,25.57
2022-08-30T16:01:57.852Z,25.55
2022-08-30T16:04:24.876Z,25.65
2022-08-30T16:06:52.820Z,25.84
2022-08-30T16:09:19.586Z,25.97
2022-08-30T16:11:46.327Z,26.02
2022-08-30T16:14:13.307Z,26.03
2022-08-30T16:16:41.793Z,26.09
2022-08-30T16:19:09.337Z,26.04
2022-08-30T16:21:37.756Z,25.93
2022-08-30T16:24:06.810Z,25.80
2022-08-30T16:26:34.965Z,25.69
2022-08-30T16:29:03.694Z,25.62
2022-08-30T16:31:32.114Z,25.63
2022-08-30T16:34:03.609Z,25.70
2022-08-30T16:36:33.243Z,25.75
2022-08-30T16:39:00.434Z,25.81
2022-08-30T16:41:28.781Z,25.82
2022-08-30T16:43:55.796Z,25.76
2022-08-30T16:46:27.711Z,25.71
2022-08-30T16:48:58.029Z,25.61
2022-08-30T16:51:27.828Z,25.59
2022-08-30T16:53:56.522Z,25.59
2022-08-30T16:56:26.076Z,25.51
2022-08-30T16:59:01.332Z,25.50
2022-08-30T17:01:32.179Z,25.50
2022-08-30T17:03:59.566Z,25.49
2022-08-30T17:06:26.592Z,25.46
2022-08-30T17:08:55.954Z,25.40
2022-08-30T17:11:23.848Z,25.42
2022-08-30T17:13:50.864Z,25.43
2022-08-30T17:16:27.380Z,25.41
2022-08-30T17:18:55.718Z,25.32
2022-08-30T17:21:23.244Z,25.14
2022-08-30T17:23:50.599Z,24.90
2022-08-30T17:26:18.524Z,24.83
2022-08-30T17:28:45.722Z,24.78
2022-08-30T17:31:12.994Z,24.80
2022-08-30T17:33:43.179Z,24.84
2022-08-30T17:36:12.735Z,24.83
2022-08-30T17:38:40.054Z,24.80
2022-08-30T17:41:11.959Z,24.76
2022-08-30T17:43:39.149Z,24.75
2022-08-30T17:46:09.610Z,24.78
2022-08-30T17:48:37.895Z,24.86
2022-08-30T17:51:05.010Z,24.78
2022-08-30T17:53:31.666Z,24.75
2022-08-30T17:55:58.859Z,24.78
2022-08-30T17:58:26.785Z,24.68
2022-08-30T18:00:56.937Z,24.69
2022-08-30T18:03:24.576Z,24.65
2022-08-30T18:05:51.211Z,24.61
2022-08-30T18:08:17.899Z,24.56
2022-08-30T18:10:44.590Z,24.50
2022-08-30T18:13:12.504Z,24.51
2022-08-30T18:15:39.333Z,24.50
2022-08-30T18:18:11.626Z,24.54
2022-08-30T18:20:39.510Z,24.58
2022-08-30T18:23:06.164Z,24.61
2022-08-30T18:25:32.827Z,24.55
2022-08-30T18:27:59.526Z,24.56
2022-08-30T18:30:33.207Z,24.57
2022-08-30T18:33:00.896Z,24.53
2022-08-30T18:35:27.615Z,24.48
2022-08-30T18:37:54.294Z,24.43
2022-08-30T18:40:21.562Z,24.43
2022-08-30T18:42:48.196Z,24.40
2022-08-30T18:45:15.631Z,24.39
2022-08-30T18:47:42.990Z,24.35
2022-08-30T18:50:09.721Z,24.34
2022-08-30T18:52:36.559Z,24.36
2022-08-30T18:55:03.382Z,24.32
2022-08-30T18:57:32.682Z,24.28
2022-08-30T18:59:59.369Z,24.30
2022-08-30T19:02:27.667Z,24.34
2022-08-30T19:04:54.947Z,24.35
2022-08-30T19:07:22.518Z,24.37
2022-08-30T19:09:55.704Z,24.33
2022-08-30T19:12:26.087Z,24.35
2022-08-30T19:14:54.313Z,24.27
2022-08-30T19:17:23.172Z,24.12
2022-08-30T19:19:52.119Z,24.03
2022-08-30T19:22:26.635Z,24.02
2022-08-30T19:24:54.042Z,24.03
2022-08-30T19:27:37.761Z,24.04
2022-08-30T19:30:23.097Z,24.05
2022-08-30T19:32:52.905Z,24.17
2022-08-30T19:35:20.381Z,24.10
2022-08-30T19:37:47.006Z,24.01
2022-08-30T19:40:16.274Z,23.72
2022-08-30T19:42:46.492Z,23.65
2022-08-30T19:45:17.652Z,23.55
2022-08-30T19:47:45.344Z,23.51
2022-08-30T19:50:14.561Z,23.47
2022-08-30T19:52:41.787Z,23.44
2022-08-30T19:55:09.966Z,23.20
2022-08-30T19:57:36.690Z,23.32
2022-08-30T20:00:11.886Z,23.36
2022-08-30T20:02:43.778Z,23.41
2022-08-30T20:05:11.390Z,23.46
2022-08-30T20:07:40.350Z,23.45
2022-08-30T20:10:12.261Z,23.48
2022-08-30T20:12:39.931Z,23.51
2022-08-30T20:15:14.926Z,23.54
2022-08-30T20:18:02.554Z,23.45
2022-08-30T20:20:30.422Z,23.52
2022-08-30T20:22:57.261Z,23.44
2022-08-30T20:25:24.073Z,23.32
2022-08-30T20:27:50.908Z,23.24
2022-08-30T20:30:18.550Z,23.09
2022-08-30T20:32:46.796Z,23.13
2022-08-30T20:35:15.949Z,23.18
2022-08-30T20:37:44.330Z,23.14
2022-08-30T20:40:15.575Z,23.14
2022-08-30T20:42:45.787Z,23.12
2022-08-30T20:45:17.192Z,23.10
2022-08-30T20:47:44.649Z,23.17
2022-08-30T20:50:14.402Z,23.17
2022-08-30T20:52:41.769Z,23.20
2022-08-30T20:55:10.228Z,23.21
2022-08-30T20:57:37.117Z,23.24
2022-08-30T21:00:10.978Z,23.24
2022-08-30T21:02:46.720Z,23.23
2022-08-30T21:05:15.702Z,23.18
2022-08-30T21:07:43.288Z,23.18
2022-08-30T21:10:10.062Z,23.16
2022-08-30T21:12:36.643Z,23.14
2022-08-30T21:15:26.906Z,23.15
2022-08-30T21:17:51.459Z,23.07
2022-08-30T21:20:18.433Z,23.02
2022-08-30T21:22:45.008Z,22.99
2022-08-30T21:25:11.553Z,23.03
2022-08-30T21:27:38.378Z,23.09
2022-08-30T21:30:05.808Z,23.15
2022-08-30T21:32:32.442Z,23.18
2022-08-30T21:35:17.608Z,23.20
2022-08-30T21:37:44.179Z,23.13
2022-08-30T21:40:14.815Z,23.14
2022-08-30T21:42:42.009Z,23.21
2022-08-30T21:45:09.412Z,23.13
2022-08-30T21:47:36.044Z,23.10
2022-08-30T21:50:02.709Z,23.09
2022-08-30T21:52:29.596Z,23.14
2022-08-30T21:54:56.118Z,23.17
2022-08-30T21:57:22.718Z,23.14
2022-08-30T21:59:49.256Z,23.18
2022-08-30T22:02:15.836Z,23.15
2022-08-30T22:04:42.457Z,23.12
2022-08-30T22:07:09.192Z,23.13
2022-08-30T22:09:36.199Z,23.13
2022-08-30T22:12:07.088Z,23.11
2022-08-30T22:14:35.310Z,23.11
2022-08-30T22:17:02.067Z,23.14
2022-08-30T22:19:28.814Z,23.02
2022-08-30T22:22:01.591Z,23.03
2022-08-30T22:24:31.937Z,22.99
2022-08-30T22:26:59.873Z,22.98
2022-08-30T22:29:26.578Z,22.97
2022-08-30T22:31:54.038Z,22.97
2022-08-30T22:34:20.637Z,22.99
2022-08-30T22:36:47.273Z,22.95
2022-08-30T22:39:14.298Z,22.91
2022-08-30T22:41:42.891Z,22.90
2022-08-30T22:44:10.153Z,22.98
2022-08-30T22:46:38.040Z,22.74
2022-08-30T22:49:06.971Z,22.63
2022-08-30T22:51:33.858Z,22.73
2022-08-30T22:54:01.320Z,22.69
2022-08-30T22:56:28.672Z,22.78
2022-08-30T22:58:55.812Z,22.86
2022-08-30T23:01:29.566Z,22.90
2022-08-30T23:03:57.295Z,22.89
2022-08-30T23:06:24.406Z,22.90
2022-08-30T23:08:51.341Z,22.94
2022-08-30T23:11:18.339Z,22.96
2022-08-30T23:13:45.066Z,22.94
2022-08-30T23:16:13.294Z,22.94
2022-08-30T23:18:43.312Z,22.90
2022-08-30T23:21:19.894Z,22.97
2022-08-30T23:24:05.385Z,22.93
2022-08-30T23:26:50.813Z,22.97
2022-08-30T23:29:36.014Z,22.98
2022-08-30T23:32:21.624Z,23.01
2022-08-30T23:35:06.845Z,23.02
2022-08-30T23:37:53.101Z,23.03
2022-08-30T23:40:40.435Z,23.02
2022-08-30T23:43:26.774Z,22.95
2022-08-30T23:46:11.853Z,22.84
2022-08-30T23:49:08.444Z,22.76
2022-08-30T23:51:55.588Z,22.78
2022-08-30T23:54:41.486Z,22.80
2022-08-30T23:57:26.662Z,22.81
